<?xml version="1.0" encoding="UTF-8" standalone="no" ?>
<gpx xmlns="http://www.topografix.com/GPX/1/1" xmlns:xsi="http://www.w3.org/2001/XMLSchema-instance" xsi:schemaLocation="http://www.topografix.com/GPX/1/1 http://www.topografix.com/GPX/1/1/gpx.xsd" version="1.1" creator="VisuGPX - https://www.visugpx.com">
  <metadata>
    <name>Canche Merciers - Mont Aigu - Hurlevent</name>
    <desc><![CDATA[40 kms technico-ludiques]]></desc>
  </metadata>
  <trk>
    <name><![CDATA[boucle cuisinière]]></name>
    <trkseg>
      <trkpt lat="48.40978" lon="2.61739">
        <ele>124</ele>
      </trkpt>
      <trkpt lat="48.40981" lon="2.61731">
        <ele>124</ele>
      </trkpt>
      <trkpt lat="48.40983" lon="2.61726">
        <ele>125</ele>
        <time>2012-02-08T13:48:32Z</time>
      </trkpt>
      <trkpt lat="48.40988" lon="2.6172">
        <ele>125</ele>
        <time>2012-02-08T13:48:44Z</time>
      </trkpt>
      <trkpt lat="48.40985" lon="2.61712">
        <ele>125</ele>
        <time>2012-02-08T13:48:48Z</time>
      </trkpt>
      <trkpt lat="48.40983" lon="2.61707">
        <ele>125</ele>
        <time>2012-02-08T13:48:50Z</time>
      </trkpt>
      <trkpt lat="48.40981" lon="2.61684">
        <ele>126</ele>
        <time>2012-02-08T13:48:59Z</time>
      </trkpt>
      <trkpt lat="48.40984" lon="2.61677">
        <ele>126</ele>
        <time>2012-02-08T13:49:03Z</time>
      </trkpt>
      <trkpt lat="48.40989" lon="2.61665">
        <ele>127</ele>
        <time>2012-02-08T13:49:08Z</time>
      </trkpt>
      <trkpt lat="48.40992" lon="2.61659">
        <ele>127</ele>
        <time>2012-02-08T13:49:10Z</time>
      </trkpt>
      <trkpt lat="48.40989" lon="2.61623">
        <ele>125</ele>
        <time>2012-02-08T13:49:19Z</time>
      </trkpt>
      <trkpt lat="48.40986" lon="2.6161">
        <ele>124</ele>
        <time>2012-02-08T13:49:26Z</time>
      </trkpt>
      <trkpt lat="48.40984" lon="2.61593">
        <ele>125</ele>
        <time>2012-02-08T13:49:34Z</time>
      </trkpt>
      <trkpt lat="48.40992" lon="2.61578">
        <ele>125</ele>
        <time>2012-02-08T13:49:39Z</time>
      </trkpt>
      <trkpt lat="48.41004" lon="2.61547">
        <ele>122</ele>
        <time>2012-02-08T13:49:49Z</time>
      </trkpt>
      <trkpt lat="48.41007" lon="2.61538">
        <ele>121</ele>
        <time>2012-02-08T13:49:53Z</time>
      </trkpt>
      <trkpt lat="48.41003" lon="2.61515">
        <ele>122</ele>
        <time>2012-02-08T13:50:03Z</time>
      </trkpt>
      <trkpt lat="48.41004" lon="2.61515">
        <ele>122</ele>
        <time>2012-02-08T13:50:08Z</time>
      </trkpt>
      <trkpt lat="48.4101" lon="2.6151">
        <ele>122</ele>
        <time>2012-02-08T13:50:12Z</time>
      </trkpt>
      <trkpt lat="48.41016" lon="2.615">
        <ele>120</ele>
        <time>2012-02-08T13:50:16Z</time>
      </trkpt>
      <trkpt lat="48.41021" lon="2.61478">
        <ele>118</ele>
        <time>2012-02-08T13:50:24Z</time>
      </trkpt>
      <trkpt lat="48.41022" lon="2.61473">
        <ele>117</ele>
        <time>2012-02-08T13:50:26Z</time>
      </trkpt>
      <trkpt lat="48.41024" lon="2.61469">
        <ele>117</ele>
        <time>2012-02-08T13:50:28Z</time>
      </trkpt>
      <trkpt lat="48.41026" lon="2.6146">
        <ele>117</ele>
        <time>2012-02-08T13:50:40Z</time>
      </trkpt>
      <trkpt lat="48.41026" lon="2.61461">
        <ele>117</ele>
        <time>2012-02-08T13:50:41Z</time>
      </trkpt>
      <trkpt lat="48.41044" lon="2.61448">
        <ele>115</ele>
        <time>2012-02-08T13:50:50Z</time>
      </trkpt>
      <trkpt lat="48.41051" lon="2.61446">
        <ele>115</ele>
        <time>2012-02-08T13:51:02Z</time>
      </trkpt>
      <trkpt lat="48.41051" lon="2.61447">
        <ele>115</ele>
        <time>2012-02-08T13:51:26Z</time>
      </trkpt>
      <trkpt lat="48.41054" lon="2.61445">
        <ele>115</ele>
        <time>2012-02-08T13:51:39Z</time>
      </trkpt>
      <trkpt lat="48.41055" lon="2.61449">
        <ele>115</ele>
        <time>2012-02-08T13:51:43Z</time>
      </trkpt>
      <trkpt lat="48.41058" lon="2.61453">
        <ele>115</ele>
        <time>2012-02-08T13:51:52Z</time>
      </trkpt>
      <trkpt lat="48.41066" lon="2.61449">
        <ele>114</ele>
        <time>2012-02-08T13:52:02Z</time>
      </trkpt>
      <trkpt lat="48.41069" lon="2.6145">
        <ele>114</ele>
        <time>2012-02-08T13:52:19Z</time>
      </trkpt>
      <trkpt lat="48.41075" lon="2.61455">
        <ele>114</ele>
        <time>2012-02-08T13:52:28Z</time>
      </trkpt>
      <trkpt lat="48.41076" lon="2.61453">
        <ele>114</ele>
        <time>2012-02-08T13:52:33Z</time>
      </trkpt>
      <trkpt lat="48.41077" lon="2.61457">
        <ele>114</ele>
        <time>2012-02-08T13:52:36Z</time>
      </trkpt>
      <trkpt lat="48.41085" lon="2.61458">
        <ele>106</ele>
        <time>2012-02-08T13:52:40Z</time>
      </trkpt>
      <trkpt lat="48.41111" lon="2.61458">
        <ele>104</ele>
        <time>2012-02-08T13:52:49Z</time>
      </trkpt>
      <trkpt lat="48.41131" lon="2.61477">
        <ele>102</ele>
        <time>2012-02-08T13:52:58Z</time>
      </trkpt>
      <trkpt lat="48.41161" lon="2.61497">
        <ele>97</ele>
        <time>2012-02-08T13:53:09Z</time>
      </trkpt>
      <trkpt lat="48.41153" lon="2.61546">
        <ele>103</ele>
        <time>2012-02-08T13:53:20Z</time>
      </trkpt>
      <trkpt lat="48.41139" lon="2.61614">
        <ele>104</ele>
        <time>2012-02-08T13:53:33Z</time>
      </trkpt>
      <trkpt lat="48.41126" lon="2.61669">
        <ele>103</ele>
        <time>2012-02-08T13:53:45Z</time>
      </trkpt>
      <trkpt lat="48.41105" lon="2.61784">
        <ele>104</ele>
        <time>2012-02-08T13:54:08Z</time>
      </trkpt>
      <trkpt lat="48.41082" lon="2.61814">
        <ele>110</ele>
        <time>2012-02-08T13:54:20Z</time>
      </trkpt>
      <trkpt lat="48.4106" lon="2.61832">
        <ele>112</ele>
        <time>2012-02-08T13:54:34Z</time>
      </trkpt>
      <trkpt lat="48.41056" lon="2.61835">
        <ele>113</ele>
        <time>2012-02-08T13:54:37Z</time>
      </trkpt>
      <trkpt lat="48.41038" lon="2.61853">
        <ele>116</ele>
        <time>2012-02-08T13:54:52Z</time>
      </trkpt>
      <trkpt lat="48.41038" lon="2.61854">
        <ele>116</ele>
        <time>2012-02-08T13:54:53Z</time>
      </trkpt>
      <trkpt lat="48.41036" lon="2.61857">
        <ele>117</ele>
        <time>2012-02-08T13:54:56Z</time>
      </trkpt>
      <trkpt lat="48.41033" lon="2.61859">
        <ele>117</ele>
        <time>2012-02-08T13:54:58Z</time>
      </trkpt>
      <trkpt lat="48.41027" lon="2.6186">
        <ele>118</ele>
        <time>2012-02-08T13:55:10Z</time>
      </trkpt>
      <trkpt lat="48.41024" lon="2.61858">
        <ele>118</ele>
        <time>2012-02-08T13:55:26Z</time>
      </trkpt>
      <trkpt lat="48.4102" lon="2.61853">
        <ele>119</ele>
        <time>2012-02-08T13:55:37Z</time>
      </trkpt>
      <trkpt lat="48.41017" lon="2.61845">
        <ele>120</ele>
        <time>2012-02-08T13:55:53Z</time>
      </trkpt>
      <trkpt lat="48.41017" lon="2.61845">
        <ele>120</ele>
        <time>2012-02-08T13:55:54Z</time>
      </trkpt>
      <trkpt lat="48.41015" lon="2.61842">
        <ele>120</ele>
        <time>2012-02-08T13:55:57Z</time>
      </trkpt>
      <trkpt lat="48.41017" lon="2.61834">
        <ele>120</ele>
        <time>2012-02-08T13:56:04Z</time>
      </trkpt>
      <trkpt lat="48.41018" lon="2.61829">
        <ele>119</ele>
        <time>2012-02-08T13:56:20Z</time>
      </trkpt>
      <trkpt lat="48.41019" lon="2.61828">
        <ele>119</ele>
        <time>2012-02-08T13:56:22Z</time>
      </trkpt>
      <trkpt lat="48.41015" lon="2.61808">
        <ele>118</ele>
        <time>2012-02-08T13:56:36Z</time>
      </trkpt>
      <trkpt lat="48.41009" lon="2.61798">
        <ele>118</ele>
        <time>2012-02-08T13:56:49Z</time>
      </trkpt>
      <trkpt lat="48.40999" lon="2.6178">
        <ele>123</ele>
        <time>2012-02-08T13:57:05Z</time>
      </trkpt>
      <trkpt lat="48.40992" lon="2.61767">
        <ele>124</ele>
        <time>2012-02-08T13:57:19Z</time>
      </trkpt>
      <trkpt lat="48.40991" lon="2.61754">
        <ele>125</ele>
        <time>2012-02-08T13:57:32Z</time>
      </trkpt>
      <trkpt lat="48.40991" lon="2.61747">
        <ele>125</ele>
        <time>2012-02-08T13:57:46Z</time>
      </trkpt>
      <trkpt lat="48.40991" lon="2.61749">
        <ele>125</ele>
        <time>2012-02-08T13:57:48Z</time>
      </trkpt>
      <trkpt lat="48.40986" lon="2.61746">
        <ele>125</ele>
        <time>2012-02-08T13:57:55Z</time>
      </trkpt>
      <trkpt lat="48.40981" lon="2.61747">
        <ele>125</ele>
      </trkpt>
    </trkseg>
  </trk>
</gpx>